createdAt,value
2022-08-16T00:01:46.560Z,20.51
2022-08-16T00:06:48.674Z,20.44
2022-08-16T00:11:52.770Z,20.43
2022-08-16T00:17:15.954Z,20.42
2022-08-16T00:22:21.056Z,20.46
2022-08-16T00:27:27.007Z,20.35
2022-08-16T00:32:33.158Z,20.34
2022-08-16T00:37:58.830Z,20.33
2022-08-16T00:42:57.115Z,20.40
2022-08-16T00:47:58.877Z,20.32
2022-08-16T00:53:00.768Z,20.37
2022-08-16T00:58:12.777Z,20.26
2022-08-16T01:03:20.596Z,20.13
2022-08-16T01:08:36.793Z,20.20
2022-08-16T01:13:39.836Z,20.21
2022-08-16T01:18:53.303Z,20.25
2022-08-16T01:24:51.984Z,20.26
2022-08-16T01:29:59.574Z,20.27
2022-08-16T01:35:07.740Z,20.24
2022-08-16T01:40:11.441Z,20.11
2022-08-16T01:45:14.783Z,20.08
2022-08-16T01:50:42.245Z,20.11
2022-08-16T01:55:53.886Z,20.10
2022-08-16T02:00:57.650Z,20.04
2022-08-16T02:05:59.802Z,20.11
2022-08-16T02:11:08.670Z,20.12
2022-08-16T02:16:18.492Z,20.06
2022-08-16T02:21:31.299Z,19.88
2022-08-16T02:26:34.446Z,19.94
2022-08-16T02:32:03.881Z,19.84
2022-08-16T02:36:58.801Z,19.83
2022-08-16T02:42:00.546Z,19.76
2022-08-16T02:47:02.538Z,19.60
2022-08-16T02:52:05.035Z,19.62
2022-08-16T02:57:11.365Z,19.54
2022-08-16T03:02:13.576Z,19.59
2022-08-16T03:07:27.533Z,19.63
2022-08-16T03:12:55.645Z,19.49
2022-08-16T03:17:54.247Z,19.55
2022-08-16T03:22:58.520Z,19.51
2022-08-16T03:28:07.927Z,19.48
2022-08-16T03:33:36.823Z,19.30
2022-08-16T03:38:39.374Z,19.36
2022-08-16T03:43:51.949Z,19.33
2022-08-16T03:48:59.215Z,19.38
2022-08-16T03:54:01.748Z,19.42
2022-08-16T03:59:06.584Z,19.46
2022-08-16T04:04:33.142Z,19.47
2022-08-16T04:09:38.497Z,19.43
2022-08-16T04:14:46.846Z,19.47
2022-08-16T04:19:51.651Z,19.39
2022-08-16T04:24:59.334Z,19.37
2022-08-16T04:30:11.004Z,19.24
2022-08-16T04:35:22.804Z,19.14
2022-08-16T04:40:27.484Z,19.09
2022-08-16T04:45:36.274Z,19.11
2022-08-16T04:50:49.286Z,19.05
2022-08-16T04:55:55.080Z,19.00
2022-08-16T05:01:01.275Z,18.93
2022-08-16T05:06:09.253Z,18.88
2022-08-16T05:11:13.739Z,18.90
2022-08-16T05:16:21.761Z,18.96
2022-08-16T05:21:38.141Z,18.97
2022-08-16T05:26:50.650Z,18.90
2022-08-16T05:31:54.239Z,19.06
2022-08-16T05:36:58.621Z,19.08
2022-08-16T05:42:07.886Z,19.07
2022-08-16T05:47:15.211Z,18.98
2022-08-16T05:52:20.888Z,19.09
2022-08-16T05:57:23.209Z,19.12
2022-08-16T06:02:29.796Z,19.19
2022-08-16T06:07:35.296Z,19.23
2022-08-16T06:12:43.432Z,19.38
2022-08-16T06:17:46.567Z,19.46
2022-08-16T06:23:02.922Z,19.45
2022-08-16T06:28:17.242Z,19.49
2022-08-16T06:33:42.092Z,19.58
2022-08-16T06:38:56.648Z,19.74
2022-08-16T06:44:21.396Z,19.88
2022-08-16T06:49:30.323Z,19.97
2022-08-16T06:54:35.926Z,20.04
2022-08-16T06:59:52.514Z,19.98
2022-08-16T07:05:14.926Z,20.20
2022-08-16T07:10:25.740Z,20.33
2022-08-16T07:15:29.768Z,20.41
2022-08-16T07:20:47.106Z,20.56
2022-08-16T07:25:50.267Z,20.64
2022-08-16T07:30:55.220Z,20.87
2022-08-16T07:36:09.929Z,20.80
2022-08-16T07:41:16.581Z,20.86
2022-08-16T07:46:38.992Z,20.94
2022-08-16T07:51:48.895Z,20.80
2022-08-16T07:56:56.559Z,21.14
2022-08-16T08:01:59.847Z,21.24
2022-08-16T08:07:02.569Z,21.43
2022-08-16T08:12:43.705Z,21.52
2022-08-16T08:17:42.698Z,21.53
2022-08-16T08:22:49.389Z,21.84
2022-08-16T08:27:51.926Z,22.01
2022-08-16T08:33:01.326Z,22.04
2022-08-16T08:38:12.828Z,22.15
2022-08-16T08:43:19.163Z,22.34
2022-08-16T08:48:33.681Z,22.43
2022-08-16T08:53:46.543Z,22.50
2022-08-16T08:59:04.663Z,22.57
2022-08-16T09:04:17.445Z,22.91
2022-08-16T09:09:22.381Z,22.89
2022-08-16T09:14:29.591Z,23.04
2022-08-16T09:19:33.845Z,23.16
2022-08-16T09:24:53.218Z,23.19
2022-08-16T09:30:00.169Z,23.10
2022-08-16T09:35:05.097Z,23.35
2022-08-16T09:40:33.012Z,23.26
2022-08-16T09:45:30.097Z,23.02
2022-08-16T09:50:38.955Z,23.17
2022-08-16T09:55:44.247Z,23.28
2022-08-16T10:00:46.514Z,23.26
2022-08-16T10:12:11.058Z,23.39
2022-08-16T10:17:13.883Z,23.44
2022-08-16T10:22:17.204Z,23.53
2022-08-16T10:27:26.993Z,23.59
2022-08-16T10:32:32.307Z,23.84
2022-08-16T10:37:36.270Z,23.92
2022-08-16T10:42:38.320Z,23.69
2022-08-16T10:47:43.078Z,23.73
2022-08-16T10:52:45.085Z,23.87
2022-08-16T10:57:55.136Z,23.60
2022-08-16T11:03:01.861Z,23.68
2022-08-16T11:08:07.031Z,23.82
2022-08-16T11:19:02.792Z,24.15
2022-08-16T11:23:58.076Z,23.93
2022-08-16T11:29:16.015Z,24.00
2022-08-16T11:34:19.812Z,24.20
2022-08-16T11:39:23.337Z,24.24
2022-08-16T11:44:52.016Z,24.50
2022-08-16T11:49:49.431Z,24.74
2022-08-16T11:54:56.965Z,24.96
2022-08-16T11:59:59.043Z,25.23
2022-08-16T12:05:01.080Z,25.53
2022-08-16T12:10:06.822Z,25.65
2022-08-16T12:15:11.011Z,25.53
2022-08-16T12:20:19.712Z,25.47
2022-08-16T12:25:23.832Z,25.44
2022-08-16T12:30:33.556Z,25.42
2022-08-16T12:35:40.029Z,25.27
2022-08-16T12:40:47.533Z,25.17
2022-08-16T12:45:55.789Z,25.13
2022-08-16T12:50:58.270Z,25.14
2022-08-16T12:56:03.538Z,24.96
2022-08-16T13:01:06.805Z,25.11
2022-08-16T13:06:13.413Z,25.01
2022-08-16T13:11:33.622Z,25.20
2022-08-16T13:16:35.280Z,25.11
2022-08-16T13:21:37.254Z,25.12
2022-08-16T13:26:38.852Z,25.05
2022-08-16T13:31:41.596Z,25.11
2022-08-16T13:36:49.469Z,25.07
2022-08-16T13:41:56.034Z,25.30
2022-08-16T13:46:57.807Z,25.55
2022-08-16T13:51:59.481Z,25.92
2022-08-16T13:57:01.873Z,25.86
2022-08-16T14:02:07.204Z,25.53
2022-08-16T14:07:20.061Z,25.58
2022-08-16T14:12:30.215Z,25.69
2022-08-16T14:18:15.967Z,25.59
2022-08-16T14:22:55.003Z,25.37
2022-08-16T14:27:57.396Z,25.20
2022-08-16T14:33:00.170Z,24.87
2022-08-16T14:38:01.948Z,24.77
2022-08-16T14:43:07.349Z,24.97
2022-08-16T14:48:09.238Z,25.20
2022-08-16T14:53:11.200Z,25.01
2022-08-16T15:04:04.059Z,24.99
2022-08-16T15:14:56.908Z,24.74
2022-08-16T15:20:01.243Z,24.77
2022-08-16T15:25:07.602Z,24.78
2022-08-16T15:30:57.748Z,24.49
2022-08-16T15:35:43.149Z,24.45
2022-08-16T15:40:57.584Z,24.43
2022-08-16T15:46:34.600Z,24.50
2022-08-16T15:51:47.643Z,24.43
2022-08-16T15:56:55.478Z,24.32
2022-08-16T16:01:58.549Z,24.37
2022-08-16T16:07:00.375Z,24.54
2022-08-16T16:12:12.020Z,24.44
2022-08-16T16:17:26.500Z,24.50
2022-08-16T16:22:38.239Z,24.76
2022-08-16T16:27:43.296Z,24.80
2022-08-16T16:32:45.130Z,24.62
2022-08-16T16:37:47.079Z,24.53
2022-08-16T16:42:53.040Z,24.49
2022-08-16T16:47:55.168Z,24.42
2022-08-16T16:53:17.076Z,24.39
2022-08-16T16:58:43.206Z,24.12
2022-08-16T17:03:46.306Z,24.08
2022-08-16T17:08:56.135Z,23.98
2022-08-16T17:13:58.245Z,23.89
2022-08-16T17:19:17.094Z,23.92
2022-08-16T17:24:33.241Z,23.82
2022-08-16T17:36:36.597Z,23.77
2022-08-16T17:41:39.193Z,23.78
2022-08-16T17:46:50.706Z,23.81
2022-08-16T17:51:54.386Z,23.81
2022-08-16T17:57:00.869Z,23.74
2022-08-16T18:02:42.154Z,23.59
2022-08-16T18:07:24.821Z,23.64
2022-08-16T18:12:51.029Z,23.58
2022-08-16T18:17:53.364Z,23.60
2022-08-16T18:23:01.789Z,23.51
2022-08-16T18:28:03.973Z,23.49
2022-08-16T18:33:05.975Z,23.59
2022-08-16T18:38:07.753Z,23.52
2022-08-16T18:43:13.930Z,23.57
2022-08-16T18:48:17.880Z,23.46
2022-08-16T18:53:21.893Z,23.41
2022-08-16T18:58:24.405Z,23.40
2022-08-16T19:03:30.245Z,23.48
2022-08-16T19:08:34.882Z,23.35
2022-08-16T19:13:40.516Z,23.31
2022-08-16T19:18:42.651Z,23.17
2022-08-16T19:23:45.320Z,23.34
2022-08-16T19:28:58.896Z,23.09
2022-08-16T19:34:04.561Z,23.07
2022-08-16T19:39:10.514Z,22.78
2022-08-16T19:44:12.881Z,22.65
2022-08-16T19:49:16.212Z,22.63
2022-08-16T19:54:18.593Z,22.69
2022-08-16T19:59:39.887Z,22.64
2022-08-16T20:04:42.669Z,22.71
2022-08-16T20:09:45.037Z,22.67
2022-08-16T20:14:47.661Z,22.54
2022-08-16T20:19:49.508Z,22.43
2022-08-16T20:24:51.897Z,22.51
2022-08-16T20:29:55.301Z,22.56
2022-08-16T20:34:57.074Z,22.61
2022-08-16T20:40:28.423Z,22.59
2022-08-16T20:45:26.989Z,22.58
2022-08-16T20:50:29.778Z,22.51
2022-08-16T20:55:34.882Z,22.52
2022-08-16T21:00:37.236Z,22.49
2022-08-16T21:05:39.360Z,22.47
2022-08-16T21:10:41.124Z,22.38
2022-08-16T21:15:43.435Z,22.32
2022-08-16T21:20:45.058Z,22.33
2022-08-16T21:25:57.914Z,22.31
2022-08-16T21:31:00.744Z,22.27
2022-08-16T21:41:55.383Z,22.25
2022-08-16T21:46:57.700Z,22.23
2022-08-16T21:52:26.161Z,22.22
2022-08-16T21:57:35.419Z,22.17
2022-08-16T22:02:39.120Z,22.12
2022-08-16T22:13:26.481Z,22.10
2022-08-16T22:18:28.186Z,21.90
2022-08-16T22:23:31.917Z,21.87
2022-08-16T22:28:33.603Z,21.81
2022-08-16T22:33:35.211Z,21.76
2022-08-16T22:38:53.976Z,21.63
2022-08-16T22:43:59.575Z,21.60
2022-08-16T22:49:01.343Z,21.63
2022-08-16T22:54:44.375Z,21.83
2022-08-16T22:59:25.710Z,21.54
2022-08-16T23:04:27.376Z,21.53
2022-08-16T23:09:29.058Z,21.64
2022-08-16T23:14:30.712Z,21.59
2022-08-16T23:19:32.301Z,21.63
2022-08-16T23:24:37.251Z,21.56
2022-08-16T23:29:55.816Z,21.45
2022-08-16T23:34:58.451Z,21.49
2022-08-16T23:40:00.280Z,21.53
2022-08-16T23:45:02.036Z,21.55
2022-08-16T23:50:04.435Z,21.52
2022-08-16T23:55:06.500Z,21.46
